sensor_id;sensor_type;location;lat;lon;timestamp;pressure;altitude;pressure_sealevel;temperature;humidity
26112;BME280;13829;48.990;8.346;2023-01-31T00:01:26;101577.91;;;4.46;100.00
26112;BME280;13829;48.990;8.346;2023-01-31T00:03:55;101575.34;;;4.48;100.00
26112;BME280;13829;48.990;8.346;2023-01-31T00:06:25;101564.88;;;4.46;100.00
26112;BME280;13829;48.990;8.346;2023-01-31T00:08:54;101560.09;;;4.37;100.00
26112;BME280;13829;48.990;8.346;2023-01-31T00:11:26;101557.50;;;4.37;100.00
26112;BME280;13829;48.990;8.346;2023-01-31T00:13:54;101551.00;;;4.11;100.00
26112;BME280;13829;48.990;8.346;2023-01-31T00:16:22;101549.44;;;4.15;100.00
26112;BME280;13829;48.990;8.346;2023-01-31T00:18:50;101547.34;;;4.07;100.00
26112;BME280;13829;48.990;8.346;2023-01-31T00:21:20;101556.72;;;4.04;100.00
26112;BME280;13829;48.990;8.346;2023-01-31T00:23:49;101551.50;;;4.04;100.00
26112;BME280;13829;48.990;8.346;2023-01-31T00:26:20;101552.66;;;3.92;100.00
26112;BME280;13829;48.990;8.346;2023-01-31T00:28:51;101549.84;;;3.88;100.00
26112;BME280;13829;48.990;8.346;2023-01-31T00:31:20;101550.97;;;3.93;100.00
26112;BME280;13829;48.990;8.346;2023-01-31T00:33:49;101553.09;;;3.84;100.00
26112;BME280;13829;48.990;8.346;2023-01-31T00:36:19;101557.28;;;3.80;100.00
26112;BME280;13829;48.990;8.346;2023-01-31T00:38:48;101546.13;;;3.83;100.00
26112;BME280;13829;48.990;8.346;2023-01-31T00:41:16;101547.09;;;3.85;100.00
26112;BME280;13829;48.990;8.346;2023-01-31T00:43:43;101551.84;;;3.59;100.00
26112;BME280;13829;48.990;8.346;2023-01-31T00:46:11;101544.50;;;3.68;100.00
26112;BME280;13829;48.990;8.346;2023-01-31T00:48:38;101541.91;;;3.68;100.00
26112;BME280;13829;48.990;8.346;2023-01-31T00:51:06;101534.44;;;3.58;100.00
26112;BME280;13829;48.990;8.346;2023-01-31T00:53:33;101527.22;;;3.69;100.00
26112;BME280;13829;48.990;8.346;2023-01-31T00:56:04;101526.72;;;3.59;100.00
26112;BME280;13829;48.990;8.346;2023-01-31T00:58:32;101534.59;;;3.78;100.00
26112;BME280;13829;48.990;8.346;2023-01-31T01:01:06;101528.25;;;3.56;100.00
26112;BME280;13829;48.990;8.346;2023-01-31T01:03:37;101525.66;;;3.56;100.00
26112;BME280;13829;48.990;8.346;2023-01-31T01:06:05;101529.09;;;3.55;100.00
26112;BME280;13829;48.990;8.346;2023-01-31T01:08:33;101523.38;;;3.62;100.00
26112;BME280;13829;48.990;8.346;2023-01-31T01:11:05;101528.38;;;3.57;100.00
26112;BME280;13829;48.990;8.346;2023-01-31T01:13:32;101538.03;;;3.60;100.00
26112;BME280;13829;48.990;8.346;2023-01-31T01:16:04;101536.72;;;3.52;100.00
26112;BME280;13829;48.990;8.346;2023-01-31T01:18:33;101539.19;;;3.49;100.00
26112;BME280;13829;48.990;8.346;2023-01-31T01:21:08;101538.28;;;3.48;100.00
26112;BME280;13829;48.990;8.346;2023-01-31T01:23:36;101539.91;;;3.46;100.00
26112;BME280;13829;48.990;8.346;2023-01-31T01:26:05;101541.22;;;3.38;100.00
26112;BME280;13829;48.990;8.346;2023-01-31T01:28:33;101545.13;;;3.46;100.00
26112;BME280;13829;48.990;8.346;2023-01-31T01:31:05;101547.88;;;3.33;100.00
26112;BME280;13829;48.990;8.346;2023-01-31T01:33:33;101543.38;;;3.63;100.00
26112;BME280;13829;48.990;8.346;2023-01-31T01:36:01;101542.28;;;3.41;100.00
26112;BME280;13829;48.990;8.346;2023-01-31T01:38:28;101532.34;;;3.51;100.00
26112;BME280;13829;48.990;8.346;2023-01-31T01:40:55;101530.56;;;3.50;100.00
26112;BME280;13829;48.990;8.346;2023-01-31T01:43:39;101539.53;;;3.22;100.00
26112;BME280;13829;48.990;8.346;2023-01-31T01:46:08;101548.28;;;3.24;100.00
26112;BME280;13829;48.990;8.346;2023-01-31T01:48:38;101549.00;;;3.21;100.00
26112;BME280;13829;48.990;8.346;2023-01-31T01:51:06;101539.94;;;3.30;100.00
26112;BME280;13829;48.990;8.346;2023-01-31T01:53:38;101546.06;;;2.99;100.00
26112;BME280;13829;48.990;8.346;2023-01-31T01:56:12;101548.59;;;3.14;100.00
26112;BME280;13829;48.990;8.346;2023-01-31T01:58:45;101550.13;;;3.10;100.00
26112;BME280;13829;48.990;8.346;2023-01-31T02:01:14;101552.59;;;3.23;100.00
26112;BME280;13829;48.990;8.346;2023-01-31T02:03:44;101547.00;;;3.16;100.00
26112;BME280;13829;48.990;8.346;2023-01-31T02:06:13;101551.38;;;3.17;100.00
26112;BME280;13829;48.990;8.346;2023-01-31T02:08:41;101545.88;;;3.27;100.00
26112;BME280;13829;48.990;8.346;2023-01-31T02:11:16;101549.09;;;3.39;100.00
26112;BME280;13829;48.990;8.346;2023-01-31T02:13:46;101559.00;;;3.30;100.00
26112;BME280;13829;48.990;8.346;2023-01-31T02:16:15;101555.41;;;3.28;100.00
26112;BME280;13829;48.990;8.346;2023-01-31T02:18:44;101555.13;;;3.38;100.00
26112;BME280;13829;48.990;8.346;2023-01-31T02:22:00;101551.13;;;3.29;100.00
26112;BME280;13829;48.990;8.346;2023-01-31T02:25:20;101566.66;;;3.27;100.00
26112;BME280;13829;48.990;8.346;2023-01-31T02:28:41;101569.25;;;3.27;100.00
26112;BME280;13829;48.990;8.346;2023-01-31T02:31:58;101567.13;;;3.20;100.00
26112;BME280;13829;48.990;8.346;2023-01-31T02:34:37;101579.38;;;3.06;100.00
26112;BME280;13829;48.990;8.346;2023-01-31T02:37:21;101576.38;;;2.98;100.00
26112;BME280;13829;48.990;8.346;2023-01-31T02:40:03;101583.53;;;3.02;100.00
26112;BME280;13829;48.990;8.346;2023-01-31T02:42:46;101580.78;;;3.16;100.00
26112;BME280;13829;48.990;8.346;2023-01-31T02:45:27;101585.25;;;3.18;100.00
26112;BME280;13829;48.990;8.346;2023-01-31T02:48:07;101582.31;;;3.12;100.00
26112;BME280;13829;48.990;8.346;2023-01-31T02:50:43;101569.00;;;3.06;100.00
26112;BME280;13829;48.990;8.346;2023-01-31T02:53:16;101570.72;;;3.05;100.00
26112;BME280;13829;48.990;8.346;2023-01-31T02:55:55;101561.44;;;3.10;100.00
26112;BME280;13829;48.990;8.346;2023-01-31T02:58:52;101568.59;;;3.15;100.00
26112;BME280;13829;48.990;8.346;2023-01-31T03:01:25;101570.22;;;3.13;100.00
26112;BME280;13829;48.990;8.346;2023-01-31T03:03:57;101567.78;;;3.32;100.00
26112;BME280;13829;48.990;8.346;2023-01-31T03:06:59;101566.88;;;3.15;100.00
26112;BME280;13829;48.990;8.346;2023-01-31T03:09:38;101568.94;;;3.21;100.00
26112;BME280;13829;48.990;8.346;2023-01-31T03:12:26;101568.34;;;3.26;100.00
26112;BME280;13829;48.990;8.346;2023-01-31T03:15:25;101568.41;;;3.28;100.00
26112;BME280;13829;48.990;8.346;2023-01-31T03:18:18;101566.81;;;3.47;100.00
26112;BME280;13829;48.990;8.346;2023-01-31T03:20:52;101567.00;;;3.33;100.00
26112;BME280;13829;48.990;8.346;2023-01-31T03:23:26;101569.41;;;3.47;100.00
26112;BME280;13829;48.990;8.346;2023-01-31T03:25:57;101576.41;;;3.31;100.00
26112;BME280;13829;48.990;8.346;2023-01-31T03:28:29;101568.53;;;3.30;100.00
26112;BME280;13829;48.990;8.346;2023-01-31T03:31:04;101568.28;;;3.41;100.00
26112;BME280;13829;48.990;8.346;2023-01-31T03:33:37;101570.88;;;3.58;100.00
26112;BME280;13829;48.990;8.346;2023-01-31T03:36:16;101570.22;;;3.46;100.00
26112;BME280;13829;48.990;8.346;2023-01-31T03:38:55;101574.94;;;3.53;100.00
26112;BME280;13829;48.990;8.346;2023-01-31T03:41:31;101579.66;;;3.60;100.00
26112;BME280;13829;48.990;8.346;2023-01-31T03:44:05;101583.88;;;3.58;100.00
26112;BME280;13829;48.990;8.346;2023-01-31T03:46:39;101590.06;;;3.60;100.00
26112;BME280;13829;48.990;8.346;2023-01-31T03:49:12;101583.53;;;3.52;100.00
26112;BME280;13829;48.990;8.346;2023-01-31T03:51:45;101591.81;;;3.28;100.00
26112;BME280;13829;48.990;8.346;2023-01-31T03:54:19;101588.34;;;3.28;100.00
26112;BME280;13829;48.990;8.346;2023-01-31T03:56:55;101596.41;;;3.32;100.00
26112;BME280;13829;48.990;8.346;2023-01-31T03:59:28;101595.59;;;3.33;100.00
26112;BME280;13829;48.990;8.346;2023-01-31T04:02:00;101586.97;;;3.34;100.00
26112;BME280;13829;48.990;8.346;2023-01-31T04:04:35;101590.88;;;3.42;100.00
26112;BME280;13829;48.990;8.346;2023-01-31T04:07:05;101592.50;;;3.40;100.00
26112;BME280;13829;48.990;8.346;2023-01-31T04:09:33;101600.13;;;3.21;100.00
26112;BME280;13829;48.990;8.346;2023-01-31T04:12:02;101605.41;;;3.39;100.00
26112;BME280;13829;48.990;8.346;2023-01-31T04:14:30;101607.19;;;3.23;100.00
26112;BME280;13829;48.990;8.346;2023-01-31T04:16:57;101601.97;;;3.07;100.00
26112;BME280;13829;48.990;8.346;2023-01-31T04:19:24;101604.00;;;2.81;100.00
26112;BME280;13829;48.990;8.346;2023-01-31T04:21:51;101597.31;;;3.01;100.00
26112;BME280;13829;48.990;8.346;2023-01-31T04:24:17;101607.66;;;2.85;100.00
26112;BME280;13829;48.990;8.346;2023-01-31T04:26:46;101604.88;;;2.65;100.00
26112;BME280;13829;48.990;8.346;2023-01-31T04:29:13;101606.41;;;2.47;100.00
26112;BME280;13829;48.990;8.346;2023-01-31T04:31:40;101600.34;;;2.46;100.00
26112;BME280;13829;48.990;8.346;2023-01-31T04:34:07;101587.78;;;2.54;100.00
26112;BME280;13829;48.990;8.346;2023-01-31T04:36:34;101587.91;;;2.72;100.00
26112;BME280;13829;48.990;8.346;2023-01-31T04:39:01;101595.06;;;2.76;100.00
26112;BME280;13829;48.990;8.346;2023-01-31T04:41:28;101597.44;;;2.56;100.00
26112;BME280;13829;48.990;8.346;2023-01-31T04:43:57;101593.13;;;2.57;100.00
26112;BME280;13829;48.990;8.346;2023-01-31T04:46:24;101593.31;;;2.60;100.00
26112;BME280;13829;48.990;8.346;2023-01-31T04:48:51;101591.69;;;2.62;100.00
26112;BME280;13829;48.990;8.346;2023-01-31T04:51:18;101594.41;;;2.64;100.00
26112;BME280;13829;48.990;8.346;2023-01-31T04:53:45;101588.47;;;2.66;100.00
26112;BME280;13829;48.990;8.346;2023-01-31T04:56:12;101596.72;;;2.59;100.00
26112;BME280;13829;48.990;8.346;2023-01-31T04:58:38;101599.06;;;2.39;100.00
26112;BME280;13829;48.990;8.346;2023-01-31T05:01:09;101598.81;;;2.35;100.00
26112;BME280;13829;48.990;8.346;2023-01-31T05:03:36;101610.19;;;2.22;100.00
26112;BME280;13829;48.990;8.346;2023-01-31T05:06:03;101603.09;;;2.34;100.00
26112;BME280;13829;48.990;8.346;2023-01-31T05:08:30;101597.53;;;2.28;100.00
26112;BME280;13829;48.990;8.346;2023-01-31T05:10:58;101592.72;;;2.34;100.00
26112;BME280;13829;48.990;8.346;2023-01-31T05:13:25;101585.47;;;2.43;100.00
26112;BME280;13829;48.990;8.346;2023-01-31T05:15:52;101598.53;;;2.30;100.00
26112;BME280;13829;48.990;8.346;2023-01-31T05:18:20;101595.78;;;2.12;100.00
26112;BME280;13829;48.990;8.346;2023-01-31T05:20:47;101593.00;;;2.24;100.00
26112;BME280;13829;48.990;8.346;2023-01-31T05:23:15;101602.31;;;2.05;100.00
26112;BME280;13829;48.990;8.346;2023-01-31T05:25:43;101615.00;;;2.01;100.00
26112;BME280;13829;48.990;8.346;2023-01-31T05:28:11;101611.34;;;1.97;100.00
26112;BME280;13829;48.990;8.346;2023-01-31T05:30:38;101606.78;;;2.08;100.00
26112;BME280;13829;48.990;8.346;2023-01-31T05:33:05;101606.25;;;2.28;100.00
26112;BME280;13829;48.990;8.346;2023-01-31T05:35:33;101599.63;;;2.34;100.00
26112;BME280;13829;48.990;8.346;2023-01-31T05:38:00;101591.34;;;2.56;100.00
26112;BME280;13829;48.990;8.346;2023-01-31T05:40:27;101586.16;;;2.56;100.00
26112;BME280;13829;48.990;8.346;2023-01-31T05:42:55;101596.28;;;2.51;100.00
26112;BME280;13829;48.990;8.346;2023-01-31T05:45:23;101599.38;;;2.75;100.00
26112;BME280;13829;48.990;8.346;2023-01-31T05:47:50;101602.03;;;2.92;100.00
26112;BME280;13829;48.990;8.346;2023-01-31T05:50:18;101612.41;;;2.92;100.00
26112;BME280;13829;48.990;8.346;2023-01-31T05:52:51;101610.16;;;2.98;100.00
26112;BME280;13829;48.990;8.346;2023-01-31T05:55:19;101609.97;;;2.95;100.00
26112;BME280;13829;48.990;8.346;2023-01-31T05:57:47;101612.19;;;3.04;100.00
26112;BME280;13829;48.990;8.346;2023-01-31T06:00:15;101604.34;;;2.87;100.00
26112;BME280;13829;48.990;8.346;2023-01-31T06:02:42;101609.34;;;2.99;100.00
26112;BME280;13829;48.990;8.346;2023-01-31T06:05:10;101614.56;;;2.99;100.00
26112;BME280;13829;48.990;8.346;2023-01-31T06:07:38;101617.75;;;2.95;100.00
26112;BME280;13829;48.990;8.346;2023-01-31T06:10:10;101615.50;;;3.01;100.00
26112;BME280;13829;48.990;8.346;2023-01-31T06:12:38;101622.44;;;3.01;100.00
26112;BME280;13829;48.990;8.346;2023-01-31T06:15:06;101605.03;;;3.00;100.00
26112;BME280;13829;48.990;8.346;2023-01-31T06:17:33;101614.31;;;3.11;100.00
26112;BME280;13829;48.990;8.346;2023-01-31T06:20:01;101614.66;;;3.17;100.00
26112;BME280;13829;48.990;8.346;2023-01-31T06:22:28;101609.13;;;3.11;100.00
26112;BME280;13829;48.990;8.346;2023-01-31T06:24:54;101608.56;;;3.17;100.00
26112;BME280;13829;48.990;8.346;2023-01-31T06:27:23;101609.78;;;3.23;100.00
26112;BME280;13829;48.990;8.346;2023-01-31T06:29:50;101618.09;;;3.33;100.00
26112;BME280;13829;48.990;8.346;2023-01-31T06:32:17;101616.94;;;3.28;100.00
26112;BME280;13829;48.990;8.346;2023-01-31T06:34:44;101617.13;;;3.31;100.00
26112;BME280;13829;48.990;8.346;2023-01-31T06:37:11;101613.28;;;3.40;100.00
26112;BME280;13829;48.990;8.346;2023-01-31T06:39:38;101616.22;;;3.30;100.00
26112;BME280;13829;48.990;8.346;2023-01-31T06:42:05;101612.97;;;3.34;100.00
26112;BME280;13829;48.990;8.346;2023-01-31T06:44:33;101621.75;;;3.36;100.00
26112;BME280;13829;48.990;8.346;2023-01-31T06:47:02;101614.69;;;3.50;100.00
26112;BME280;13829;48.990;8.346;2023-01-31T06:49:29;101617.28;;;3.67;100.00
26112;BME280;13829;48.990;8.346;2023-01-31T06:51:56;101616.09;;;3.60;100.00
26112;BME280;13829;48.990;8.346;2023-01-31T06:54:23;101625.41;;;3.56;100.00
26112;BME280;13829;48.990;8.346;2023-01-31T06:56:50;101631.34;;;3.70;100.00
26112;BME280;13829;48.990;8.346;2023-01-31T06:59:17;101634.91;;;3.56;100.00
26112;BME280;13829;48.990;8.346;2023-01-31T07:01:45;101628.50;;;3.66;100.00
26112;BME280;13829;48.990;8.346;2023-01-31T07:04:12;101630.44;;;3.70;100.00
26112;BME280;13829;48.990;8.346;2023-01-31T07:06:39;101630.88;;;3.61;100.00
26112;BME280;13829;48.990;8.346;2023-01-31T07:09:06;101627.63;;;3.65;100.00
26112;BME280;13829;48.990;8.346;2023-01-31T07:11:33;101625.56;;;3.59;100.00
26112;BME280;13829;48.990;8.346;2023-01-31T07:14:00;101619.81;;;3.65;100.00
26112;BME280;13829;48.990;8.346;2023-01-31T07:16:27;101622.41;;;3.49;100.00
26112;BME280;13829;48.990;8.346;2023-01-31T07:18:55;101623.06;;;3.45;100.00
26112;BME280;13829;48.990;8.346;2023-01-31T07:21:23;101620.22;;;3.56;100.00
26112;BME280;13829;48.990;8.346;2023-01-31T07:23:51;101623.38;;;3.34;100.00
26112;BME280;13829;48.990;8.346;2023-01-31T07:26:18;101619.28;;;3.23;100.00
26112;BME280;13829;48.990;8.346;2023-01-31T07:28:44;101623.84;;;3.10;100.00
26112;BME280;13829;48.990;8.346;2023-01-31T07:31:13;101621.84;;;3.06;100.00
26112;BME280;13829;48.990;8.346;2023-01-31T07:33:40;101622.78;;;3.07;100.00
26112;BME280;13829;48.990;8.346;2023-01-31T07:36:12;101629.56;;;3.05;100.00
26112;BME280;13829;48.990;8.346;2023-01-31T07:38:40;101635.50;;;3.02;100.00
26112;BME280;13829;48.990;8.346;2023-01-31T07:41:10;101636.94;;;2.97;100.00
26112;BME280;13829;48.990;8.346;2023-01-31T07:43:37;101637.59;;;2.93;100.00
26112;BME280;13829;48.990;8.346;2023-01-31T07:46:06;101638.25;;;2.89;100.00
26112;BME280;13829;48.990;8.346;2023-01-31T07:48:35;101643.59;;;2.92;100.00
26112;BME280;13829;48.990;8.346;2023-01-31T07:51:03;101636.56;;;3.06;100.00
26112;BME280;13829;48.990;8.346;2023-01-31T07:53:35;101629.72;;;3.56;100.00
26112;BME280;13829;48.990;8.346;2023-01-31T07:56:10;101630.03;;;3.95;97.77
26112;BME280;13829;48.990;8.346;2023-01-31T07:58:37;101624.47;;;4.40;95.72
26112;BME280;13829;48.990;8.346;2023-01-31T08:01:06;101619.41;;;4.97;92.48
26112;BME280;13829;48.990;8.346;2023-01-31T08:03:51;101619.06;;;5.27;88.73
26112;BME280;13829;48.990;8.346;2023-01-31T08:06:18;101622.66;;;5.49;87.10
26112;BME280;13829;48.990;8.346;2023-01-31T08:08:46;101622.66;;;5.68;86.23
26112;BME280;13829;48.990;8.346;2023-01-31T08:11:13;101617.88;;;5.20;85.48
26112;BME280;13829;48.990;8.346;2023-01-31T08:13:40;101628.34;;;5.02;87.82
26112;BME280;13829;48.990;8.346;2023-01-31T08:16:08;101625.44;;;4.96;88.49
26112;BME280;13829;48.990;8.346;2023-01-31T08:18:35;101618.09;;;4.69;89.60
26112;BME280;13829;48.990;8.346;2023-01-31T08:21:03;101623.66;;;4.41;91.31
26112;BME280;13829;48.990;8.346;2023-01-31T08:23:31;101625.28;;;4.21;92.08
26112;BME280;13829;48.990;8.346;2023-01-31T08:26:03;101625.31;;;4.04;93.26
26112;BME280;13829;48.990;8.346;2023-01-31T08:28:31;101627.97;;;4.06;94.55
26112;BME280;13829;48.990;8.346;2023-01-31T08:30:58;101635.09;;;3.92;96.22
26112;BME280;13829;48.990;8.346;2023-01-31T08:33:25;101635.16;;;3.77;95.93
26112;BME280;13829;48.990;8.346;2023-01-31T08:35:52;101634.03;;;3.72;97.37
26112;BME280;13829;48.990;8.346;2023-01-31T08:38:19;101636.31;;;3.66;97.70
26112;BME280;13829;48.990;8.346;2023-01-31T08:40:46;101637.84;;;3.62;97.09
26112;BME280;13829;48.990;8.346;2023-01-31T08:43:16;101645.66;;;3.62;98.68
26112;BME280;13829;48.990;8.346;2023-01-31T08:45:44;101649.16;;;3.63;98.85
26112;BME280;13829;48.990;8.346;2023-01-31T08:48:11;101650.72;;;3.75;98.75
26112;BME280;13829;48.990;8.346;2023-01-31T08:50:39;101651.84;;;3.81;98.41
26112;BME280;13829;48.990;8.346;2023-01-31T08:53:06;101641.50;;;3.66;99.12
26112;BME280;13829;48.990;8.346;2023-01-31T08:55:35;101636.22;;;3.81;99.39
26112;BME280;13829;48.990;8.346;2023-01-31T08:58:02;101638.50;;;3.91;100.00
26112;BME280;13829;48.990;8.346;2023-01-31T09:00:31;101637.81;;;4.12;99.46
26112;BME280;13829;48.990;8.346;2023-01-31T09:02:59;101630.94;;;4.30;99.52
26112;BME280;13829;48.990;8.346;2023-01-31T09:05:28;101632.06;;;4.53;97.00
26112;BME280;13829;48.990;8.346;2023-01-31T09:07:55;101622.69;;;4.57;97.75
26112;BME280;13829;48.990;8.346;2023-01-31T09:10:22;101628.22;;;4.63;97.00
26112;BME280;13829;48.990;8.346;2023-01-31T09:12:49;101634.22;;;4.62;95.03
26112;BME280;13829;48.990;8.346;2023-01-31T09:15:16;101633.06;;;4.73;94.77
26112;BME280;13829;48.990;8.346;2023-01-31T09:17:45;101640.00;;;4.55;93.76
26112;BME280;13829;48.990;8.346;2023-01-31T09:20:12;101639.31;;;4.59;94.17
26112;BME280;13829;48.990;8.346;2023-01-31T09:22:39;101650.78;;;4.45;95.44
26112;BME280;13829;48.990;8.346;2023-01-31T09:25:07;101653.56;;;4.31;95.50
26112;BME280;13829;48.990;8.346;2023-01-31T09:27:35;101649.94;;;4.46;95.21
26112;BME280;13829;48.990;8.346;2023-01-31T09:30:05;101643.84;;;4.45;94.42
26112;BME280;13829;48.990;8.346;2023-01-31T09:32:33;101637.00;;;4.47;94.64
26112;BME280;13829;48.990;8.346;2023-01-31T09:35:02;101640.34;;;4.45;94.62
26112;BME280;13829;48.990;8.346;2023-01-31T09:37:29;101646.69;;;4.50;94.15
26112;BME280;13829;48.990;8.346;2023-01-31T09:39:56;101645.38;;;4.41;95.31
26112;BME280;13829;48.990;8.346;2023-01-31T09:42:28;101644.03;;;4.32;95.65
26112;BME280;13829;48.990;8.346;2023-01-31T09:45:01;101633.53;;;4.30;97.08
26112;BME280;13829;48.990;8.346;2023-01-31T09:47:35;101636.41;;;4.53;97.02
26112;BME280;13829;48.990;8.346;2023-01-31T09:50:16;101634.75;;;4.91;95.78
26112;BME280;13829;48.990;8.346;2023-01-31T09:52:44;101640.13;;;5.12;95.29
26112;BME280;13829;48.990;8.346;2023-01-31T09:55:16;101640.59;;;5.23;94.29
26112;BME280;13829;48.990;8.346;2023-01-31T09:57:53;101651.25;;;5.28;93.56
26112;BME280;13829;48.990;8.346;2023-01-31T10:00:30;101649.41;;;5.25;92.86
26112;BME280;13829;48.990;8.346;2023-01-31T10:03:40;101657.38;;;5.28;92.76
26112;BME280;13829;48.990;8.346;2023-01-31T10:06:18;101646.38;;;5.16;92.25
26112;BME280;13829;48.990;8.346;2023-01-31T10:08:52;101650.22;;;5.24;93.40
26112;BME280;13829;48.990;8.346;2023-01-31T10:11:31;101654.19;;;5.16;92.66
26112;BME280;13829;48.990;8.346;2023-01-31T10:14:16;101642.88;;;4.97;93.03
26112;BME280;13829;48.990;8.346;2023-01-31T10:16:59;101633.50;;;5.01;92.24
26112;BME280;13829;48.990;8.346;2023-01-31T10:19:32;101625.00;;;4.87;92.61
26112;BME280;13829;48.990;8.346;2023-01-31T10:22:12;101629.25;;;4.85;93.09
26112;BME280;13829;48.990;8.346;2023-01-31T10:24:47;101641.78;;;4.92;93.77
26112;BME280;13829;48.990;8.346;2023-01-31T10:27:32;101654.28;;;4.99;93.67
26112;BME280;13829;48.990;8.346;2023-01-31T10:30:04;101649.81;;;4.97;91.88
26112;BME280;13829;48.990;8.346;2023-01-31T10:32:39;101647.78;;;4.91;92.06
26112;BME280;13829;48.990;8.346;2023-01-31T10:35:14;101644.06;;;4.86;92.97
26112;BME280;13829;48.990;8.346;2023-01-31T10:37:49;101649.22;;;4.66;92.97
26112;BME280;13829;48.990;8.346;2023-01-31T10:40:22;101631.63;;;4.62;94.07
26112;BME280;13829;48.990;8.346;2023-01-31T10:42:57;101634.09;;;4.59;94.09
26112;BME280;13829;48.990;8.346;2023-01-31T10:45:27;101621.63;;;4.17;95.16
26112;BME280;13829;48.990;8.346;2023-01-31T10:48:10;101602.22;;;4.47;96.00
26112;BME280;13829;48.990;8.346;2023-01-31T10:50:51;101595.31;;;4.65;96.94
26112;BME280;13829;48.990;8.346;2023-01-31T10:53:42;101611.38;;;4.93;95.33
26112;BME280;13829;48.990;8.346;2023-01-31T10:56:21;101609.66;;;4.93;93.67
26112;BME280;13829;48.990;8.346;2023-01-31T10:58:52;101604.88;;;5.02;92.72
26112;BME280;13829;48.990;8.346;2023-01-31T11:01:19;101590.63;;;5.14;91.43
26112;BME280;13829;48.990;8.346;2023-01-31T11:03:49;101585.94;;;5.06;91.55
26112;BME280;13829;48.990;8.346;2023-01-31T11:06:18;101580.66;;;5.05;91.71
26112;BME280;13829;48.990;8.346;2023-01-31T11:08:49;101570.34;;;5.26;90.96
26112;BME280;13829;48.990;8.346;2023-01-31T11:11:20;101565.88;;;5.63;90.73
26112;BME280;13829;48.990;8.346;2023-01-31T11:13:58;101573.53;;;5.79;88.74
26112;BME280;13829;48.990;8.346;2023-01-31T11:16:29;101574.47;;;5.81;87.20
26112;BME280;13829;48.990;8.346;2023-01-31T11:18:58;101578.06;;;5.83;86.26
26112;BME280;13829;48.990;8.346;2023-01-31T11:21:31;101567.66;;;5.64;86.82
26112;BME280;13829;48.990;8.346;2023-01-31T11:24:04;101572.94;;;5.65;87.75
26112;BME280;13829;48.990;8.346;2023-01-31T11:26:35;101564.34;;;5.68;86.69
26112;BME280;13829;48.990;8.346;2023-01-31T11:29:26;101564.78;;;5.79;84.76
26112;BME280;13829;48.990;8.346;2023-01-31T11:31:55;101559.25;;;5.71;86.48
26112;BME280;13829;48.990;8.346;2023-01-31T11:34:25;101566.91;;;5.66;87.16
26112;BME280;13829;48.990;8.346;2023-01-31T11:37:04;101577.19;;;5.63;87.05
26112;BME280;13829;48.990;8.346;2023-01-31T11:39:35;101554.34;;;5.79;86.10
26112;BME280;13829;48.990;8.346;2023-01-31T11:42:11;101530.63;;;5.72;86.78
26112;BME280;13829;48.990;8.346;2023-01-31T11:44:55;101535.19;;;5.78;86.13
26112;BME280;13829;48.990;8.346;2023-01-31T11:47:36;101536.84;;;5.76;86.45
26112;BME280;13829;48.990;8.346;2023-01-31T11:50:10;101529.88;;;5.75;86.82
26112;BME280;13829;48.990;8.346;2023-01-31T11:52:44;101523.63;;;5.71;88.50
26112;BME280;13829;48.990;8.346;2023-01-31T11:55:17;101518.84;;;5.61;87.32
26112;BME280;13829;48.990;8.346;2023-01-31T11:57:44;101516.84;;;5.55;88.47
26112;BME280;13829;48.990;8.346;2023-01-31T12:00:23;101495.84;;;5.52;88.47
26112;BME280;13829;48.990;8.346;2023-01-31T12:02:59;101482.03;;;5.55;88.73
26112;BME280;13829;48.990;8.346;2023-01-31T12:05:36;101474.69;;;5.67;88.56
26112;BME280;13829;48.990;8.346;2023-01-31T12:08:04;101466.44;;;5.78;88.05
26112;BME280;13829;48.990;8.346;2023-01-31T12:10:42;101455.59;;;5.68;88.50
26112;BME280;13829;48.990;8.346;2023-01-31T12:13:15;101472.19;;;5.69;88.59
26112;BME280;13829;48.990;8.346;2023-01-31T12:15:52;101468.84;;;5.73;89.68
26112;BME280;13829;48.990;8.346;2023-01-31T12:18:49;101466.81;;;5.87;88.84
26112;BME280;13829;48.990;8.346;2023-01-31T12:24:40;101471.75;;;6.00;85.03
26112;BME280;13829;48.990;8.346;2023-01-31T12:27:27;101481.50;;;6.04;83.73
26112;BME280;13829;48.990;8.346;2023-01-31T12:30:30;101467.63;;;6.06;84.90
26112;BME280;13829;48.990;8.346;2023-01-31T12:33:27;101465.69;;;6.01;83.40
26112;BME280;13829;48.990;8.346;2023-01-31T12:36:20;101454.59;;;5.86;84.53
26112;BME280;13829;48.990;8.346;2023-01-31T12:39:01;101447.97;;;5.94;84.40
26112;BME280;13829;48.990;8.346;2023-01-31T12:41:35;101436.06;;;5.80;84.35
26112;BME280;13829;48.990;8.346;2023-01-31T12:44:40;101425.06;;;5.87;85.81
26112;BME280;13829;48.990;8.346;2023-01-31T12:47:30;101416.91;;;5.79;85.75
26112;BME280;13829;48.990;8.346;2023-01-31T12:50:28;101412.56;;;5.80;84.32
26112;BME280;13829;48.990;8.346;2023-01-31T12:53:21;101403.03;;;5.59;84.03
26112;BME280;13829;48.990;8.346;2023-01-31T12:56:05;101404.00;;;5.61;84.76
26112;BME280;13829;48.990;8.346;2023-01-31T12:58:48;101395.56;;;5.68;85.06
26112;BME280;13829;48.990;8.346;2023-01-31T13:01:26;101400.94;;;5.71;84.71
26112;BME280;13829;48.990;8.346;2023-01-31T13:04:16;101383.13;;;5.61;84.59
26112;BME280;13829;48.990;8.346;2023-01-31T13:06:53;101370.63;;;5.54;84.62
26112;BME280;13829;48.990;8.346;2023-01-31T13:09:27;101375.50;;;5.67;83.50
26112;BME280;13829;48.990;8.346;2023-01-31T13:12:04;101385.94;;;5.67;83.77
26112;BME280;13829;48.990;8.346;2023-01-31T13:14:38;101381.44;;;5.63;83.36
26112;BME280;13829;48.990;8.346;2023-01-31T13:17:12;101362.47;;;5.67;83.17
26112;BME280;13829;48.990;8.346;2023-01-31T13:19:45;101367.94;;;5.74;82.38
26112;BME280;13829;48.990;8.346;2023-01-31T13:22:21;101380.41;;;5.81;82.63
26112;BME280;13829;48.990;8.346;2023-01-31T13:25:00;101397.88;;;5.82;81.97
26112;BME280;13829;48.990;8.346;2023-01-31T13:27:36;101385.59;;;5.79;82.40